Time;durP1;ratioP1;P1;durP2;ratioP2;P2;SDS_P1;SDS_P2;PMS_P1;PMS_P2;Temp;Humidity;BMP_temperature;BMP_pressure;BME280_temperature;BME280_humidity;BME280_pressure;Samples;Min_cycle;Max_cycle;Signal;HPM_P1;HPM_P2
2022/12/10 04:44:55;;;;;;;47.17;20.23;;;;;;;;;;6194612;22;20195;-92
2022/12/10 04:48:00;;;;;;;49.83;20.60;;;;;;;;;;6258516;23;20178;-92
2022/12/10 04:51:06;;;;;;;50.33;20.93;;;;;;;;;;6257776;23;20166;-91
2022/12/10 04:54:12;;;;;;;54.07;21.47;;;;;;;;;;6257155;23;20209;-91
2022/12/10 04:57:17;;;;;;;47.80;19.93;;;;;;;;;;6257902;23;20154;-91
2022/12/10 05:00:24;;;;;;;49.60;20.40;;;;;;;;;;6258041;22;20211;-92
2022/12/10 05:03:33;;;;;;;49.07;20.47;;;;;;;;;;6258367;22;20186;-91
2022/12/10 05:06:38;;;;;;;57.27;21.43;;;;;;;;;;6257332;22;20169;-91
2022/12/10 05:09:43;;;;;;;53.13;20.93;;;;;;;;;;6255163;23;20209;-92
2022/12/10 05:12:48;;;;;;;44.83;18.90;;;;;;;;;;6255188;23;20171;-92
2022/12/10 05:15:55;;;;;;;44.00;19.23;;;;;;;;;;6257458;22;20150;-94
2022/12/10 05:19:01;;;;;;;48.27;18.87;;;;;;;;;;6254467;23;20517;-94
2022/12/10 05:25:52;;;;;;;45.67;19.53;;;;;;;;;;6175804;22;20690;-91
2022/12/10 05:28:57;;;;;;;44.80;18.87;;;;;;;;;;6256855;22;20178;-93
2022/12/10 05:32:05;;;;;;;44.13;19.57;;;;;;;;;;6258580;23;20169;-92
2022/12/10 05:35:10;;;;;;;47.20;19.07;;;;;;;;;;6257582;22;20219;-94
2022/12/10 05:38:15;;;;;;;44.00;18.43;;;;;;;;;;6256061;23;20167;-92
2022/12/10 05:41:21;;;;;;;41.70;18.00;;;;;;;;;;6254988;22;20166;-94
2022/12/10 05:44:26;;;;;;;48.57;19.50;;;;;;;;;;6256070;22;20190;-92
2022/12/10 05:47:33;;;;;;;43.57;18.93;;;;;;;;;;6258442;22;20190;-92
2022/12/10 05:50:38;;;;;;;42.10;17.70;;;;;;;;;;6257267;22;20238;-92
2022/12/10 05:53:43;;;;;;;45.60;18.67;;;;;;;;;;6258341;22;20166;-93
2022/12/10 05:56:48;;;;;;;44.10;18.70;;;;;;;;;;6256122;22;20193;-92
2022/12/10 05:59:53;;;;;;;46.53;19.57;;;;;;;;;;6255861;22;20170;-91
2022/12/10 06:03:00;;;;;;;43.10;18.83;;;;;;;;;;6257009;22;20171;-94
2022/12/10 06:06:06;;;;;;;49.83;19.53;;;;;;;;;;6257746;22;20180;-92
2022/12/10 06:09:13;;;;;;;45.57;19.20;;;;;;;;;;6257363;22;20166;-90
2022/12/10 06:12:18;;;;;;;50.77;20.30;;;;;;;;;;6255612;23;20235;-92
2022/12/10 06:15:24;;;;;;;49.03;20.40;;;;;;;;;;6254928;23;20154;-94
2022/12/10 06:18:31;;;;;;;47.67;18.07;;;;;;;;;;6258368;22;20195;-92
2022/12/10 06:21:35;;;;;;;44.60;18.97;;;;;;;;;;6257797;22;20171;-92
2022/12/10 06:24:41;;;;;;;54.43;20.17;;;;;;;;;;6256382;23;20249;-93
2022/12/10 06:27:46;;;;;;;44.30;19.80;;;;;;;;;;6257326;23;20178;-93
2022/12/10 06:30:51;;;;;;;45.43;20.30;;;;;;;;;;6257334;23;20179;-91
2022/12/10 06:33:58;;;;;;;46.23;18.93;;;;;;;;;;6257593;22;20167;-91
2022/12/10 06:37:03;;;;;;;51.93;20.23;;;;;;;;;;6257727;23;20214;-92
2022/12/10 06:40:09;;;;;;;46.30;19.43;;;;;;;;;;6259525;23;20178;-94
2022/12/10 06:43:13;;;;;;;46.03;19.40;;;;;;;;;;6261206;22;20166;-92
2022/12/10 06:46:19;;;;;;;51.17;19.40;;;;;;;;;;6257540;22;20174;-93
2022/12/10 06:49:26;;;;;;;45.77;19.50;;;;;;;;;;6258379;23;20621;-92
2022/12/10 06:52:32;;;;;;;47.27;19.60;;;;;;;;;;6258079;23;20170;-92
2022/12/10 06:55:38;;;;;;;48.33;18.73;;;;;;;;;;6260192;23;20175;-92
2022/12/10 06:58:44;;;;;;;46.03;19.80;;;;;;;;;;6258459;23;20158;-90
2022/12/10 07:01:49;;;;;;;49.57;20.13;;;;;;;;;;6259700;22;20209;-92
2022/12/10 07:04:57;;;;;;;47.70;19.20;;;;;;;;;;6261539;23;20190;-90
2022/12/10 07:08:03;;;;;;;47.30;20.57;;;;;;;;;;6262174;22;20184;-92
2022/12/10 07:11:08;;;;;;;49.10;20.83;;;;;;;;;;6259385;22;20171;-92
2022/12/10 07:14:15;;;;;;;47.63;19.93;;;;;;;;;;6261192;22;20209;-92
2022/12/10 07:17:22;;;;;;;51.37;21.63;;;;;;;;;;6259990;22;20198;-92
2022/12/10 07:20:28;;;;;;;51.40;21.63;;;;;;;;;;6258909;22;20166;-94
2022/12/10 07:23:33;;;;;;;50.60;21.20;;;;;;;;;;6259312;22;20197;-92
2022/12/10 07:26:40;;;;;;;52.93;21.47;;;;;;;;;;6259316;22;20167;-94
2022/12/10 07:29:46;;;;;;;49.70;20.53;;;;;;;;;;6260035;22;20213;-92
2022/12/10 07:32:51;;;;;;;51.03;21.00;;;;;;;;;;6258886;22;20241;-92
2022/12/10 07:35:59;;;;;;;55.50;22.63;;;;;;;;;;6259717;22;20229;-92
2022/12/10 07:39:06;;;;;;;88.17;31.43;;;;;;;;;;6260825;23;20146;-92
2022/12/10 07:42:15;;;;;;;82.27;33.97;;;;;;;;;;6261149;22;20170;-92
2022/12/10 07:45:20;;;;;;;68.03;26.03;;;;;;;;;;6259994;22;20221;-92
2022/12/10 07:48:26;;;;;;;60.07;24.60;;;;;;;;;;6261172;22;20166;-92
2022/12/10 07:51:32;;;;;;;59.50;23.93;;;;;;;;;;6261243;22;20216;-93
2022/12/10 07:54:38;;;;;;;66.93;27.23;;;;;;;;;;6260225;22;20193;-92
2022/12/10 07:57:43;;;;;;;62.50;22.60;;;;;;;;;;6260680;22;20216;-93
2022/12/10 08:00:48;;;;;;;56.00;21.77;;;;;;;;;;6261660;22;20270;-92
2022/12/10 08:03:58;;;;;;;56.73;21.77;;;;;;;;;;6260482;22;20170;-91
2022/12/10 08:07:05;;;;;;;51.40;20.43;;;;;;;;;;6258260;22;20186;-93
2022/12/10 08:10:10;;;;;;;59.40;21.53;;;;;;;;;;6257344;23;20162;-92
2022/12/10 08:13:16;;;;;;;60.80;23.10;;;;;;;;;;6258903;23;20535;-93
2022/12/10 08:16:22;;;;;;;54.27;22.03;;;;;;;;;;6256743;23;20166;-93
2022/12/10 08:19:27;;;;;;;55.40;22.73;;;;;;;;;;6256035;23;20491;-93
2022/12/10 08:22:35;;;;;;;56.83;22.73;;;;;;;;;;6256289;23;20177;-92
2022/12/10 08:25:40;;;;;;;56.23;22.90;;;;;;;;;;6257905;23;20190;-92
2022/12/10 08:28:45;;;;;;;59.03;22.30;;;;;;;;;;6258789;23;20142;-91
2022/12/10 08:31:49;;;;;;;55.53;22.00;;;;;;;;;;6259043;22;20613;-94
2022/12/10 08:34:55;;;;;;;54.27;21.13;;;;;;;;;;6256803;22;20178;-95
2022/12/10 08:38:05;;;;;;;56.33;21.97;;;;;;;;;;6257826;22;20159;-92
2022/12/10 08:41:11;;;;;;;58.43;23.03;;;;;;;;;;6258932;22;20166;-93
2022/12/10 08:44:16;;;;;;;54.30;22.07;;;;;;;;;;6257665;23;20209;-92
2022/12/10 08:47:22;;;;;;;62.60;24.07;;;;;;;;;;6260192;23;20170;-93
2022/12/10 08:50:27;;;;;;;54.83;21.87;;;;;;;;;;6259347;22;20258;-93
2022/12/10 08:53:34;;;;;;;46.77;20.90;;;;;;;;;;6260372;22;20170;-92
2022/12/10 08:56:40;;;;;;;57.10;22.07;;;;;;;;;;6260264;23;20170;-93
2022/12/10 08:59:46;;;;;;;56.17;22.93;;;;;;;;;;6262824;22;20162;-91
2022/12/10 09:02:51;;;;;;;54.40;22.43;;;;;;;;;;6260535;22;20149;-89
2022/12/10 09:06:00;;;;;;;50.53;22.50;;;;;;;;;;6264271;22;20194;-92
2022/12/10 09:09:26;;;;;;;50.93;21.90;;;;;;;;;;6265462;23;20177;-92
2022/12/10 09:12:31;;;;;;;54.60;21.20;;;;;;;;;;6262721;22;20186;-91
2022/12/10 09:15:39;;;;;;;49.93;20.80;;;;;;;;;;6265516;22;20176;-89
2022/12/10 09:18:48;;;;;;;54.03;22.23;;;;;;;;;;6260172;22;20170;-92
2022/12/10 09:21:54;;;;;;;46.53;20.70;;;;;;;;;;6261747;23;20204;-92
2022/12/10 09:25:01;;;;;;;52.13;21.07;;;;;;;;;;6255405;23;20616;-90
2022/12/10 09:28:07;;;;;;;50.83;21.03;;;;;;;;;;6257306;22;20166;-91
2022/12/10 09:31:12;;;;;;;61.47;22.67;;;;;;;;;;6257641;22;20154;-91
2022/12/10 09:34:18;;;;;;;56.87;23.23;;;;;;;;;;6256154;22;20166;-91
2022/12/10 09:37:23;;;;;;;60.13;23.57;;;;;;;;;;6258518;23;20227;-92
2022/12/10 09:40:37;;;;;;;56.30;23.30;;;;;;;;;;6256523;22;20166;-93
2022/12/10 09:43:56;;;;;;;66.90;30.13;;;;;;;;;;6260235;22;20166;-91
2022/12/10 09:47:06;;;;;;;62.87;26.17;;;;;;;;;;6259611;22;20229;-92
2022/12/10 09:50:18;;;;;;;55.27;22.90;;;;;;;;;;6259821;22;20497;-91
2022/12/10 09:53:26;;;;;;;53.70;22.93;;;;;;;;;;6260497;23;20166;-93
2022/12/10 09:56:35;;;;;;;59.80;23.70;;;;;;;;;;6261454;22;20212;-91
2022/12/10 09:59:42;;;;;;;54.20;23.00;;;;;;;;;;6260668;22;20182;-92
2022/12/10 10:02:49;;;;;;;50.43;20.77;;;;;;;;;;6262104;22;20167;-90
2022/12/10 10:05:56;;;;;;;53.10;21.37;;;;;;;;;;6261819;22;20205;-93
2022/12/10 10:09:06;;;;;;;52.63;21.43;;;;;;;;;;6262611;22;20181;-89
2022/12/10 10:12:15;;;;;;;57.87;23.07;;;;;;;;;;6263414;23;20171;-89
2022/12/10 10:15:24;;;;;;;52.37;21.37;;;;;;;;;;6261002;23;20169;-91
2022/12/10 10:18:34;;;;;;;55.47;22.33;;;;;;;;;;6259741;23;20170;-92
2022/12/10 10:21:44;;;;;;;52.80;20.30;;;;;;;;;;6260372;23;20194;-91
2022/12/10 10:24:52;;;;;;;52.10;21.70;;;;;;;;;;6259490;23;20171;-92
2022/12/10 10:28:01;;;;;;;59.03;22.67;;;;;;;;;;6261301;22;20154;-93
2022/12/10 10:31:14;;;;;;;44.73;19.13;;;;;;;;;;6261179;22;20174;-93
2022/12/10 10:34:21;;;;;;;53.10;22.07;;;;;;;;;;6260748;23;20225;-93
2022/12/10 10:37:29;;;;;;;52.73;21.63;;;;;;;;;;6261503;22;20170;-92
2022/12/10 10:40:41;;;;;;;52.60;20.67;;;;;;;;;;6260866;23;20213;-92
2022/12/10 10:43:48;;;;;;;49.77;20.23;;;;;;;;;;6259605;23;20167;-91
2022/12/10 10:46:55;;;;;;;47.47;19.93;;;;;;;;;;6259797;23;20174;-90
2022/12/10 10:50:00;;;;;;;47.37;20.30;;;;;;;;;;6259976;22;20206;-93
2022/12/10 10:53:21;;;;;;;48.83;19.90;;;;;;;;;;6260482;22;20190;-93
2022/12/10 10:56:29;;;;;;;48.97;19.83;;;;;;;;;;6261493;22;20171;-90
2022/12/10 10:59:37;;;;;;;53.57;21.07;;;;;;;;;;6260471;22;20170;-89
2022/12/10 11:02:43;;;;;;;53.93;21.63;;;;;;;;;;6260357;23;20166;-92
2022/12/10 11:05:50;;;;;;;49.63;21.00;;;;;;;;;;6261240;23;20963;-91
2022/12/10 11:08:58;;;;;;;51.20;21.57;;;;;;;;;;6259421;23;20174;-92
2022/12/10 11:12:05;;;;;;;51.63;21.93;;;;;;;;;;6260623;22;20170;-93
2022/12/10 11:15:30;;;;;;;50.10;21.43;;;;;;;;;;6260392;22;20214;-91
2022/12/10 11:18:36;;;;;;;52.47;21.30;;;;;;;;;;6262453;23;20170;-92
2022/12/10 11:21:42;;;;;;;54.03;22.87;;;;;;;;;;6263116;23;20171;-90
2022/12/10 11:24:48;;;;;;;54.83;20.87;;;;;;;;;;6261887;22;20175;-91
2022/12/10 11:27:58;;;;;;;48.67;19.73;;;;;;;;;;6260194;23;20153;-92
2022/12/10 11:31:15;;;;;;;54.67;23.03;;;;;;;;;;6261023;22;20223;-93
2022/12/10 11:34:30;;;;;;;50.03;22.17;;;;;;;;;;6262253;22;20277;-92
2022/12/10 11:37:39;;;;;;;52.53;21.37;;;;;;;;;;6258940;22;20167;-91
2022/12/10 11:40:48;;;;;;;48.80;21.33;;;;;;;;;;6261647;22;20166;-89
2022/12/10 11:44:03;;;;;;;59.63;24.50;;;;;;;;;;6260850;22;20167;-90
2022/12/10 11:47:21;;;;;;;58.43;24.50;;;;;;;;;;6261314;22;20704;-91
2022/12/10 11:50:28;;;;;;;50.83;22.23;;;;;;;;;;6261805;22;20494;-92
2022/12/10 11:53:43;;;;;;;47.70;20.77;;;;;;;;;;6260052;22;20463;-91
2022/12/10 11:56:51;;;;;;;52.17;22.67;;;;;;;;;;6259909;23;20186;-90
2022/12/10 11:59:58;;;;;;;48.53;21.67;;;;;;;;;;6260195;23;20170;-91
2022/12/10 12:03:17;;;;;;;53.17;22.40;;;;;;;;;;6259032;23;20166;-92
2022/12/10 12:06:29;;;;;;;54.50;23.93;;;;;;;;;;6261558;22;20201;-90
2022/12/10 12:09:41;;;;;;;57.60;21.73;;;;;;;;;;6259288;23;20178;-89
2022/12/10 12:12:51;;;;;;;50.37;21.50;;;;;;;;;;6260410;23;20170;-91
2022/12/10 12:15:59;;;;;;;55.10;21.93;;;;;;;;;;6259109;22;20163;-88
2022/12/10 12:19:07;;;;;;;46.13;19.27;;;;;;;;;;6259678;22;20182;-89
2022/12/10 12:22:15;;;;;;;45.23;19.10;;;;;;;;;;6260385;23;20170;-91
2022/12/10 12:25:24;;;;;;;48.20;20.03;;;;;;;;;;6260580;23;20171;-89
2022/12/10 12:28:31;;;;;;;49.20;20.13;;;;;;;;;;6260021;23;20178;-93
2022/12/10 12:31:38;;;;;;;49.20;20.53;;;;;;;;;;6257314;23;20233;-92
2022/12/10 12:34:47;;;;;;;48.10;20.43;;;;;;;;;;6257818;23;20170;-91
2022/12/10 12:37:56;;;;;;;44.30;19.63;;;;;;;;;;6258772;23;20170;-93
2022/12/10 12:41:08;;;;;;;45.60;18.43;;;;;;;;;;6257135;23;20162;-92
2022/12/10 12:44:16;;;;;;;41.67;17.73;;;;;;;;;;6257202;23;20210;-90
2022/12/10 12:47:24;;;;;;;43.97;18.57;;;;;;;;;;6260104;22;20190;-91
2022/12/10 12:50:40;;;;;;;46.37;20.13;;;;;;;;;;6256520;23;20170;-93
2022/12/10 12:53:46;;;;;;;43.13;19.37;;;;;;;;;;6255951;23;20190;-91
2022/12/10 12:56:58;;;;;;;44.17;19.43;;;;;;;;;;6258604;23;20234;-94
2022/12/10 13:00:05;;;;;;;43.87;18.63;;;;;;;;;;6259065;22;20217;-92
2022/12/10 13:03:19;;;;;;;45.07;18.80;;;;;;;;;;6259198;23;20174;-91
2022/12/10 13:06:28;;;;;;;43.83;20.27;;;;;;;;;;6258370;22;20194;-90
2022/12/10 13:09:33;;;;;;;42.23;19.27;;;;;;;;;;6258348;22;20163;-91
2022/12/10 13:12:47;;;;;;;38.67;17.97;;;;;;;;;;6260466;23;20162;-90
2022/12/10 13:15:52;;;;;;;41.03;18.07;;;;;;;;;;6259718;23;20491;-92
2022/12/10 13:19:12;;;;;;;41.77;17.73;;;;;;;;;;6259332;23;20175;-91
2022/12/10 13:22:32;;;;;;;42.73;17.00;;;;;;;;;;6260087;22;20178;-90
2022/12/10 13:25:56;;;;;;;47.47;19.30;;;;;;;;;;6261069;23;20170;-91
2022/12/10 13:29:13;;;;;;;48.07;19.00;;;;;;;;;;6260861;23;20205;-91
2022/12/10 13:36:14;;;;;;;38.53;17.23;;;;;;;;;;6263447;23;20218;-91
2022/12/10 13:39:23;;;;;;;40.20;18.57;;;;;;;;;;6262108;23;20187;-92
2022/12/10 13:46:12;;;;;;;38.40;17.37;;;;;;;;;;6264734;22;20252;-91
2022/12/10 13:52:46;;;;;;;42.00;18.00;;;;;;;;;;6266679;22;20163;-92
2022/12/10 13:55:56;;;;;;;47.23;17.60;;;;;;;;;;6262987;22;20198;-90
2022/12/10 13:59:13;;;;;;;36.00;16.90;;;;;;;;;;6260877;22;20154;-93
2022/12/10 14:02:38;;;;;;;43.17;17.43;;;;;;;;;;6262060;22;20150;-92
2022/12/10 14:06:08;;;;;;;37.17;16.70;;;;;;;;;;6261094;22;20166;-95
2022/12/10 14:09:17;;;;;;;37.10;17.40;;;;;;;;;;6262273;23;20255;-92
2022/12/10 14:12:26;;;;;;;41.47;16.90;;;;;;;;;;6261001;23;20166;-92
2022/12/10 14:15:37;;;;;;;36.60;16.10;;;;;;;;;;6266753;22;20166;-93
2022/12/10 14:18:44;;;;;;;39.03;17.40;;;;;;;;;;6263274;23;20221;-91
2022/12/10 14:21:49;;;;;;;34.70;16.27;;;;;;;;;;6261178;22;20202;-91
2022/12/10 14:24:54;;;;;;;39.43;16.47;;;;;;;;;;6261198;23;20165;-93
2022/12/10 14:28:00;;;;;;;36.97;16.17;;;;;;;;;;6261445;22;20191;-90
2022/12/10 14:31:08;;;;;;;55.70;22.27;;;;;;;;;;6262119;23;20190;-92
2022/12/10 14:34:16;;;;;;;35.53;15.73;;;;;;;;;;6261591;23;20190;-93
2022/12/10 14:37:22;;;;;;;41.50;17.73;;;;;;;;;;6260072;23;20233;-91
2022/12/10 14:40:28;;;;;;;51.80;20.50;;;;;;;;;;6262262;23;20224;-93
2022/12/10 14:43:37;;;;;;;55.40;22.80;;;;;;;;;;6264818;23;20190;-93
2022/12/10 14:46:44;;;;;;;42.90;17.60;;;;;;;;;;6263118;22;20194;-92
2022/12/10 14:49:53;;;;;;;39.80;17.10;;;;;;;;;;6261331;22;20204;-92
2022/12/10 14:52:59;;;;;;;46.37;16.83;;;;;;;;;;6264464;23;20167;-93
2022/12/10 14:56:05;;;;;;;66.17;26.70;;;;;;;;;;6262807;22;20170;-91
2022/12/10 14:59:13;;;;;;;46.27;19.03;;;;;;;;;;6260100;23;20218;-91
2022/12/10 15:02:22;;;;;;;68.93;26.00;;;;;;;;;;6261958;22;20167;-92
2022/12/10 15:05:30;;;;;;;39.97;17.07;;;;;;;;;;6263741;23;20175;-92
2022/12/10 15:08:35;;;;;;;42.47;17.27;;;;;;;;;;6262816;23;20170;-91
2022/12/10 15:11:41;;;;;;;40.80;18.40;;;;;;;;;;6262315;23;20170;-90
2022/12/10 15:14:47;;;;;;;45.73;18.57;;;;;;;;;;6262077;23;20266;-89
2022/12/10 15:17:57;;;;;;;50.77;18.10;;;;;;;;;;6260439;23;20150;-90
2022/12/10 15:21:07;;;;;;;43.80;18.30;;;;;;;;;;6261703;22;20562;-89
2022/12/10 15:24:16;;;;;;;48.23;19.13;;;;;;;;;;6261873;22;20213;-90
2022/12/10 15:27:22;;;;;;;49.67;18.73;;;;;;;;;;6262293;23;20238;-88
2022/12/10 15:30:35;;;;;;;46.40;17.70;;;;;;;;;;6263701;22;20212;-89
2022/12/10 15:33:44;;;;;;;47.03;18.87;;;;;;;;;;6263423;22;20162;-91
2022/12/10 15:36:52;;;;;;;47.23;18.97;;;;;;;;;;6264542;23;20550;-90
2022/12/10 15:40:00;;;;;;;52.07;19.73;;;;;;;;;;6266341;22;20174;-92
2022/12/10 15:43:22;;;;;;;55.47;21.20;;;;;;;;;;6262244;23;20227;-91
2022/12/10 15:46:27;;;;;;;50.43;21.33;;;;;;;;;;6260621;23;20213;-94
2022/12/10 15:49:38;;;;;;;54.67;22.50;;;;;;;;;;6260771;23;20190;-91
2022/12/10 15:52:44;;;;;;;52.20;21.30;;;;;;;;;;6261345;22;20171;-90
2022/12/10 15:55:49;;;;;;;48.30;20.03;;;;;;;;;;6259886;23;20268;-91
2022/12/10 15:58:55;;;;;;;54.57;22.20;;;;;;;;;;6258410;23;20625;-91
2022/12/10 16:02:02;;;;;;;57.57;22.83;;;;;;;;;;6258912;23;20208;-90
2022/12/10 16:05:14;;;;;;;57.47;23.30;;;;;;;;;;6260528;23;20247;-91
2022/12/10 16:08:21;;;;;;;60.23;21.27;;;;;;;;;;6261584;22;20250;-91
2022/12/10 16:11:59;;;;;;;50.63;21.30;;;;;;;;;;6260762;22;20253;-91
2022/12/10 16:15:05;;;;;;;59.90;22.67;;;;;;;;;;6259475;23;20154;-89
2022/12/10 16:18:11;;;;;;;57.87;23.33;;;;;;;;;;6261374;23;20216;-92
2022/12/10 16:21:18;;;;;;;64.57;24.00;;;;;;;;;;6260260;22;20309;-91
2022/12/10 16:24:23;;;;;;;59.03;22.67;;;;;;;;;;6259550;23;20178;-91
2022/12/10 16:27:29;;;;;;;58.63;23.80;;;;;;;;;;6262279;22;20194;-89
2022/12/10 16:30:36;;;;;;;55.53;22.03;;;;;;;;;;6261056;22;20185;-90
2022/12/10 16:33:42;;;;;;;56.93;23.00;;;;;;;;;;6259395;22;20170;-92
2022/12/10 16:36:49;;;;;;;61.57;23.17;;;;;;;;;;6260242;23;20682;-93
2022/12/10 16:39:54;;;;;;;54.27;22.17;;;;;;;;;;6258119;23;20535;-90
2022/12/10 16:43:02;;;;;;;59.77;23.23;;;;;;;;;;6259843;23;20198;-93
2022/12/10 16:46:07;;;;;;;47.83;21.10;;;;;;;;;;6260919;22;20206;-90
2022/12/10 16:49:13;;;;;;;55.27;22.80;;;;;;;;;;6261782;22;20179;-88
2022/12/10 16:52:19;;;;;;;57.00;21.90;;;;;;;;;;6266190;23;20648;-90
2022/12/10 16:55:28;;;;;;;61.93;22.97;;;;;;;;;;6265017;23;20174;-88
2022/12/10 16:58:33;;;;;;;60.23;22.67;;;;;;;;;;6264626;22;20231;-91
2022/12/10 17:01:38;;;;;;;67.23;23.60;;;;;;;;;;6261482;22;20170;-89
2022/12/10 17:04:44;;;;;;;64.93;24.27;;;;;;;;;;6261644;22;20230;-90
2022/12/10 17:07:50;;;;;;;71.47;25.17;;;;;;;;;;6259371;22;20300;-92
2022/12/10 17:14:24;;;;;;;70.63;25.90;;;;;;;;;;6258820;22;20206;-90
2022/12/10 17:17:29;;;;;;;70.87;25.23;;;;;;;;;;6259694;23;20166;-90
2022/12/10 17:20:35;;;;;;;67.20;25.00;;;;;;;;;;6260185;22;20178;-91
2022/12/10 17:23:41;;;;;;;72.43;25.37;;;;;;;;;;6258695;22;20213;-88
2022/12/10 17:26:47;;;;;;;62.10;24.67;;;;;;;;;;6257851;23;20198;-89
2022/12/10 17:29:54;;;;;;;78.30;27.30;;;;;;;;;;6256921;22;20213;-87
2022/12/10 17:32:59;;;;;;;66.83;24.73;;;;;;;;;;6253125;22;20167;-88
2022/12/10 17:36:06;;;;;;;74.93;25.83;;;;;;;;;;6254824;23;20170;-89
2022/12/10 17:39:15;;;;;;;69.10;23.80;;;;;;;;;;6256190;22;20333;-88
2022/12/10 17:42:20;;;;;;;62.90;22.97;;;;;;;;;;6257071;22;20163;-89
2022/12/10 17:45:25;;;;;;;67.90;24.37;;;;;;;;;;6257509;22;20189;-89
2022/12/10 17:48:30;;;;;;;62.77;23.97;;;;;;;;;;6252833;23;20310;-90
2022/12/10 17:51:42;;;;;;;68.27;25.50;;;;;;;;;;6258452;22;20166;-91
2022/12/10 17:54:48;;;;;;;67.87;24.40;;;;;;;;;;6260565;23;20216;-92
2022/12/10 17:57:56;;;;;;;67.37;23.83;;;;;;;;;;6261241;23;20189;-89
2022/12/10 18:01:02;;;;;;;76.93;24.90;;;;;;;;;;6260821;22;20433;-90
2022/12/10 18:04:17;;;;;;;67.80;26.40;;;;;;;;;;6260170;22;20242;-88
2022/12/10 18:07:22;;;;;;;72.30;25.97;;;;;;;;;;6259236;23;20217;-92
2022/12/10 18:10:31;;;;;;;72.63;27.00;;;;;;;;;;6260193;23;20220;-89
2022/12/10 18:13:37;;;;;;;83.67;30.43;;;;;;;;;;6259767;23;20182;-90
2022/12/10 18:16:42;;;;;;;81.27;30.87;;;;;;;;;;6263320;22;20163;-92
2022/12/10 18:19:48;;;;;;;77.93;29.03;;;;;;;;;;6265296;23;20205;-89
2022/12/10 18:22:55;;;;;;;85.23;31.33;;;;;;;;;;6266064;22;20598;-88
2022/12/10 18:26:06;;;;;;;88.73;32.13;;;;;;;;;;6266889;22;20217;-90
2022/12/10 18:29:13;;;;;;;79.90;30.73;;;;;;;;;;6264011;22;20220;-90
2022/12/10 18:32:22;;;;;;;78.93;28.60;;;;;;;;;;6265212;22;20169;-91
2022/12/10 18:35:29;;;;;;;80.50;28.93;;;;;;;;;;6262405;23;20245;-91
2022/12/10 18:38:35;;;;;;;79.93;28.43;;;;;;;;;;6263589;22;20171;-94
2022/12/10 18:41:57;;;;;;;83.53;27.87;;;;;;;;;;6263735;22;20167;-92
2022/12/10 18:45:07;;;;;;;74.83;26.93;;;;;;;;;;6265578;23;20189;-90
2022/12/10 18:48:14;;;;;;;72.87;26.03;;;;;;;;;;6265956;23;20626;-91
2022/12/10 18:51:19;;;;;;;88.80;29.33;;;;;;;;;;6267256;22;20146;-92
2022/12/10 18:54:25;;;;;;;79.00;28.33;;;;;;;;;;6265694;22;20219;-93
2022/12/10 18:57:31;;;;;;;73.83;26.53;;;;;;;;;;6267070;22;20170;-93
2022/12/10 19:00:46;;;;;;;72.77;27.07;;;;;;;;;;6267758;23;20237;-90
2022/12/10 19:03:55;;;;;;;82.60;27.23;;;;;;;;;;6265425;22;20586;-91
2022/12/10 19:07:07;;;;;;;82.27;28.03;;;;;;;;;;6267383;22;20170;-92
2022/12/10 19:10:15;;;;;;;97.30;30.33;;;;;;;;;;6267182;22;20163;-92
2022/12/10 19:13:25;;;;;;;77.83;28.97;;;;;;;;;;6267093;22;20160;-92
